Terminal Aerodrome Forecast
Issued by NWS

Home | Current Version | Previous Version | Text Only | Print | Product List | Glossary On
Versions: 1 2 3 4 5 6 7 8 9 10 11 12 13 14 15 16 17 18 19 20
503
FTUS41 KBGM 210533
TAFELM
TAF
KELM 210533Z 2106/2206 24007KT P6SM SCT200 WS020/23040KT
     FM211500 25012G19KT P6SM BKN090
     FM211700 28011G17KT P6SM -SHRA OVC025
     FM212000 31010KT 3SM -SHRA BR OVC015
     FM212200 34010KT P6SM OVC020
     FM220000 35008KT P6SM OVC045=

USA.gov is the U.S. government's official web portal to all federal, state and local government web resources and services.